sensor_id;sensor_type;location;lat;lon;timestamp;temperature;humidity
58809;DHT22;44579;51.672;7.834;2023-07-28T00:00:47;18.20;86.40
58809;DHT22;44579;51.672;7.834;2023-07-28T00:03:14;18.20;86.50
58809;DHT22;44579;51.672;7.834;2023-07-28T00:05:41;18.20;86.40
58809;DHT22;44579;51.672;7.834;2023-07-28T00:08:08;18.20;86.40
58809;DHT22;44579;51.672;7.834;2023-07-28T00:10:39;18.20;86.40
58809;DHT22;44579;51.672;7.834;2023-07-28T00:13:06;18.20;86.40
58809;DHT22;44579;51.672;7.834;2023-07-28T00:15:33;18.20;86.50
58809;DHT22;44579;51.672;7.834;2023-07-28T00:17:59;18.20;86.50
58809;DHT22;44579;51.672;7.834;2023-07-28T00:20:28;18.20;86.60
58809;DHT22;44579;51.672;7.834;2023-07-28T00:22:55;18.20;86.70
58809;DHT22;44579;51.672;7.834;2023-07-28T00:25:22;18.20;86.80
58809;DHT22;44579;51.672;7.834;2023-07-28T00:27:48;18.10;86.70
58809;DHT22;44579;51.672;7.834;2023-07-28T00:30:15;18.10;86.80
58809;DHT22;44579;51.672;7.834;2023-07-28T00:32:42;18.10;86.80
58809;DHT22;44579;51.672;7.834;2023-07-28T00:35:09;18.10;86.80
58809;DHT22;44579;51.672;7.834;2023-07-28T00:37:36;18.10;86.80
58809;DHT22;44579;51.672;7.834;2023-07-28T00:40:03;18.10;86.70
58809;DHT22;44579;51.672;7.834;2023-07-28T00:42:30;18.20;86.80
58809;DHT22;44579;51.672;7.834;2023-07-28T00:44:57;18.20;86.70
58809;DHT22;44579;51.672;7.834;2023-07-28T00:47:24;18.20;86.70
58809;DHT22;44579;51.672;7.834;2023-07-28T00:49:51;18.10;86.70
58809;DHT22;44579;51.672;7.834;2023-07-28T00:52:18;18.10;86.80
58809;DHT22;44579;51.672;7.834;2023-07-28T00:54:45;18.10;86.90
58809;DHT22;44579;51.672;7.834;2023-07-28T00:57:11;18.10;86.90
58809;DHT22;44579;51.672;7.834;2023-07-28T00:59:38;18.10;86.90
58809;DHT22;44579;51.672;7.834;2023-07-28T01:02:05;18.10;86.90
58809;DHT22;44579;51.672;7.834;2023-07-28T01:04:32;18.10;87.00
58809;DHT22;44579;51.672;7.834;2023-07-28T01:10:22;18.10;87.10
58809;DHT22;44579;51.672;7.834;2023-07-28T01:12:38;18.10;87.20
58809;DHT22;44579;51.672;7.834;2023-07-28T01:15:05;18.10;87.20
58809;DHT22;44579;51.672;7.834;2023-07-28T01:17:32;18.10;87.40
58809;DHT22;44579;51.672;7.834;2023-07-28T01:19:59;18.10;87.50
58809;DHT22;44579;51.672;7.834;2023-07-28T01:27:32;18.10;87.60
58809;DHT22;44579;51.672;7.834;2023-07-28T01:29:59;18.10;87.60
58809;DHT22;44579;51.672;7.834;2023-07-28T01:32:26;18.10;87.60
58809;DHT22;44579;51.672;7.834;2023-07-28T01:34:53;18.10;87.70
58809;DHT22;44579;51.672;7.834;2023-07-28T01:37:20;18.10;87.80
58809;DHT22;44579;51.672;7.834;2023-07-28T01:39:47;18.10;87.80
58809;DHT22;44579;51.672;7.834;2023-07-28T01:42:14;18.00;87.90
58809;DHT22;44579;51.672;7.834;2023-07-28T01:44:40;18.10;87.90
58809;DHT22;44579;51.672;7.834;2023-07-28T01:47:07;18.10;88.00
58809;DHT22;44579;51.672;7.834;2023-07-28T01:49:34;18.10;88.00
58809;DHT22;44579;51.672;7.834;2023-07-28T01:52:01;18.00;87.90
58809;DHT22;44579;51.672;7.834;2023-07-28T01:54:28;18.10;88.00
58809;DHT22;44579;51.672;7.834;2023-07-28T01:56:54;18.10;87.90
58809;DHT22;44579;51.672;7.834;2023-07-28T01:59:21;18.10;88.00
58809;DHT22;44579;51.672;7.834;2023-07-28T02:01:48;18.10;88.00
58809;DHT22;44579;51.672;7.834;2023-07-28T02:04:15;18.10;87.90
58809;DHT22;44579;51.672;7.834;2023-07-28T02:06:42;18.10;87.90
58809;DHT22;44579;51.672;7.834;2023-07-28T02:09:09;18.10;87.90
58809;DHT22;44579;51.672;7.834;2023-07-28T02:11:38;18.20;87.90
58809;DHT22;44579;51.672;7.834;2023-07-28T02:14:05;18.20;87.80
58809;DHT22;44579;51.672;7.834;2023-07-28T02:16:32;18.10;87.70
58809;DHT22;44579;51.672;7.834;2023-07-28T02:19:00;18.10;87.80
58809;DHT22;44579;51.672;7.834;2023-07-28T02:21:26;18.10;87.80
58809;DHT22;44579;51.672;7.834;2023-07-28T02:23:56;18.10;88.00
58809;DHT22;44579;51.672;7.834;2023-07-28T02:26:23;18.10;87.90
58809;DHT22;44579;51.672;7.834;2023-07-28T02:28:49;18.20;87.90
58809;DHT22;44579;51.672;7.834;2023-07-28T02:31:16;18.10;87.90
58809;DHT22;44579;51.672;7.834;2023-07-28T02:33:43;18.10;88.00
58809;DHT22;44579;51.672;7.834;2023-07-28T02:36:10;18.10;88.00
58809;DHT22;44579;51.672;7.834;2023-07-28T02:38:37;18.10;88.00
58809;DHT22;44579;51.672;7.834;2023-07-28T02:41:03;18.10;88.00
58809;DHT22;44579;51.672;7.834;2023-07-28T02:43:30;18.10;88.10
58809;DHT22;44579;51.672;7.834;2023-07-28T02:45:57;18.10;88.00
58809;DHT22;44579;51.672;7.834;2023-07-28T02:48:24;18.10;88.00
58809;DHT22;44579;51.672;7.834;2023-07-28T02:50:51;18.10;88.00
58809;DHT22;44579;51.672;7.834;2023-07-28T02:53:18;18.10;88.80
58809;DHT22;44579;51.672;7.834;2023-07-28T02:55:46;18.10;87.90
58809;DHT22;44579;51.672;7.834;2023-07-28T02:58:13;18.10;87.90
58809;DHT22;44579;51.672;7.834;2023-07-28T03:00:41;18.10;88.00
58809;DHT22;44579;51.672;7.834;2023-07-28T03:03:08;18.10;88.00
58809;DHT22;44579;51.672;7.834;2023-07-28T03:05:38;18.10;88.00
58809;DHT22;44579;51.672;7.834;2023-07-28T03:08:23;18.10;88.00
58809;DHT22;44579;51.672;7.834;2023-07-28T03:11:00;18.10;88.00
58809;DHT22;44579;51.672;7.834;2023-07-28T03:13:30;18.10;88.00
58809;DHT22;44579;51.672;7.834;2023-07-28T03:15:57;18.10;88.90
58809;DHT22;44579;51.672;7.834;2023-07-28T03:18:24;18.10;88.10
58809;DHT22;44579;51.672;7.834;2023-07-28T03:20:51;18.10;88.20
58809;DHT22;44579;51.672;7.834;2023-07-28T03:23:18;18.10;88.20
58809;DHT22;44579;51.672;7.834;2023-07-28T03:25:45;18.10;88.20
58809;DHT22;44579;51.672;7.834;2023-07-28T03:28:11;18.10;88.40
58809;DHT22;44579;51.672;7.834;2023-07-28T03:30:39;18.10;88.40
58809;DHT22;44579;51.672;7.834;2023-07-28T03:33:07;18.10;88.40
58809;DHT22;44579;51.672;7.834;2023-07-28T03:35:33;18.10;88.30
58809;DHT22;44579;51.672;7.834;2023-07-28T03:38:06;18.10;88.30
58809;DHT22;44579;51.672;7.834;2023-07-28T03:40:32;18.10;88.40
58809;DHT22;44579;51.672;7.834;2023-07-28T03:42:59;18.10;88.40
58809;DHT22;44579;51.672;7.834;2023-07-28T03:45:26;18.10;88.40
58809;DHT22;44579;51.672;7.834;2023-07-28T03:47:53;18.10;88.40
58809;DHT22;44579;51.672;7.834;2023-07-28T03:50:20;18.10;88.50
58809;DHT22;44579;51.672;7.834;2023-07-28T03:52:47;18.10;88.40
58809;DHT22;44579;51.672;7.834;2023-07-28T03:55:13;18.10;88.40
58809;DHT22;44579;51.672;7.834;2023-07-28T03:57:40;18.10;88.40
58809;DHT22;44579;51.672;7.834;2023-07-28T04:00:07;18.10;89.40
58809;DHT22;44579;51.672;7.834;2023-07-28T04:02:40;18.10;88.50
58809;DHT22;44579;51.672;7.834;2023-07-28T04:05:07;18.10;88.50
58809;DHT22;44579;51.672;7.834;2023-07-28T04:07:34;18.10;88.60
58809;DHT22;44579;51.672;7.834;2023-07-28T04:10:01;18.10;88.70
58809;DHT22;44579;51.672;7.834;2023-07-28T04:12:28;18.20;88.70
58809;DHT22;44579;51.672;7.834;2023-07-28T04:14:55;18.20;88.60
58809;DHT22;44579;51.672;7.834;2023-07-28T04:17:23;18.20;88.70
58809;DHT22;44579;51.672;7.834;2023-07-28T04:19:50;18.20;88.60
58809;DHT22;44579;51.672;7.834;2023-07-28T04:22:17;18.20;88.70
58809;DHT22;44579;51.672;7.834;2023-07-28T04:24:49;18.20;88.80
58809;DHT22;44579;51.672;7.834;2023-07-28T04:27:16;18.20;88.90
58809;DHT22;44579;51.672;7.834;2023-07-28T04:29:43;18.20;89.00
58809;DHT22;44579;51.672;7.834;2023-07-28T04:32:12;18.20;89.00
58809;DHT22;44579;51.672;7.834;2023-07-28T04:34:39;18.20;89.00
58809;DHT22;44579;51.672;7.834;2023-07-28T04:37:12;18.20;88.90
58809;DHT22;44579;51.672;7.834;2023-07-28T04:39:50;18.20;89.00
58809;DHT22;44579;51.672;7.834;2023-07-28T04:42:17;18.20;89.00
58809;DHT22;44579;51.672;7.834;2023-07-28T04:44:45;18.20;89.00
58809;DHT22;44579;51.672;7.834;2023-07-28T04:47:13;18.30;89.10
58809;DHT22;44579;51.672;7.834;2023-07-28T04:49:41;18.30;88.90
58809;DHT22;44579;51.672;7.834;2023-07-28T04:52:08;18.30;89.10
58809;DHT22;44579;51.672;7.834;2023-07-28T04:54:53;18.30;89.10
58809;DHT22;44579;51.672;7.834;2023-07-28T04:57:20;18.40;89.10
58809;DHT22;44579;51.672;7.834;2023-07-28T04:59:47;18.40;89.20
58809;DHT22;44579;51.672;7.834;2023-07-28T05:02:14;18.40;89.20
58809;DHT22;44579;51.672;7.834;2023-07-28T05:04:41;18.40;89.20
58809;DHT22;44579;51.672;7.834;2023-07-28T05:07:07;18.50;89.30
58809;DHT22;44579;51.672;7.834;2023-07-28T05:09:34;18.50;89.20
58809;DHT22;44579;51.672;7.834;2023-07-28T05:12:01;18.50;89.30
58809;DHT22;44579;51.672;7.834;2023-07-28T05:14:32;18.50;89.30
58809;DHT22;44579;51.672;7.834;2023-07-28T05:16:59;18.50;89.50
58809;DHT22;44579;51.672;7.834;2023-07-28T05:19:46;18.50;89.60
58809;DHT22;44579;51.672;7.834;2023-07-28T05:22:16;18.50;89.70
58809;DHT22;44579;51.672;7.834;2023-07-28T05:24:46;18.50;89.70
58809;DHT22;44579;51.672;7.834;2023-07-28T05:27:14;18.60;89.70
58809;DHT22;44579;51.672;7.834;2023-07-28T05:29:44;18.60;89.60
58809;DHT22;44579;51.672;7.834;2023-07-28T05:32:11;18.60;89.60
58809;DHT22;44579;51.672;7.834;2023-07-28T05:34:53;18.60;89.70
58809;DHT22;44579;51.672;7.834;2023-07-28T05:37:20;18.60;89.90
58809;DHT22;44579;51.672;7.834;2023-07-28T05:39:47;18.60;90.30
58809;DHT22;44579;51.672;7.834;2023-07-28T05:42:14;18.70;90.00
58809;DHT22;44579;51.672;7.834;2023-07-28T05:44:41;18.80;90.10
58809;DHT22;44579;51.672;7.834;2023-07-28T05:47:08;19.10;90.30
58809;DHT22;44579;51.672;7.834;2023-07-28T05:49:34;19.20;90.40
58809;DHT22;44579;51.672;7.834;2023-07-28T05:52:01;19.20;90.40
58809;DHT22;44579;51.672;7.834;2023-07-28T05:54:29;19.20;90.40
58809;DHT22;44579;51.672;7.834;2023-07-28T05:56:56;19.20;90.50
58809;DHT22;44579;51.672;7.834;2023-07-28T05:59:22;19.20;90.50
58809;DHT22;44579;51.672;7.834;2023-07-28T06:01:49;19.10;90.50
58809;DHT22;44579;51.672;7.834;2023-07-28T06:04:35;19.10;90.60
58809;DHT22;44579;51.672;7.834;2023-07-28T06:07:04;19.00;90.60
58809;DHT22;44579;51.672;7.834;2023-07-28T06:09:34;19.10;90.60
58809;DHT22;44579;51.672;7.834;2023-07-28T06:12:01;19.10;90.60
58809;DHT22;44579;51.672;7.834;2023-07-28T06:14:28;19.10;90.60
58809;DHT22;44579;51.672;7.834;2023-07-28T06:16:56;19.10;90.60
58809;DHT22;44579;51.672;7.834;2023-07-28T06:19:26;19.10;90.50
58809;DHT22;44579;51.672;7.834;2023-07-28T06:21:54;19.10;90.90
58809;DHT22;44579;51.672;7.834;2023-07-28T06:24:21;19.10;90.60
58809;DHT22;44579;51.672;7.834;2023-07-28T06:26:48;19.10;90.60
58809;DHT22;44579;51.672;7.834;2023-07-28T06:29:17;19.10;90.60
58809;DHT22;44579;51.672;7.834;2023-07-28T06:31:44;19.20;90.60
58809;DHT22;44579;51.672;7.834;2023-07-28T06:34:10;19.20;90.60
58809;DHT22;44579;51.672;7.834;2023-07-28T06:36:37;19.30;90.50
58809;DHT22;44579;51.672;7.834;2023-07-28T06:39:04;19.30;90.50
58809;DHT22;44579;51.672;7.834;2023-07-28T06:41:31;19.40;90.70
58809;DHT22;44579;51.672;7.834;2023-07-28T06:44:00;19.40;90.70
58809;DHT22;44579;51.672;7.834;2023-07-28T06:46:28;19.40;90.70
58809;DHT22;44579;51.672;7.834;2023-07-28T06:48:55;19.40;90.70
58809;DHT22;44579;51.672;7.834;2023-07-28T06:51:22;19.40;90.70
58809;DHT22;44579;51.672;7.834;2023-07-28T06:53:48;19.40;90.70
58809;DHT22;44579;51.672;7.834;2023-07-28T06:56:15;19.40;90.80
58809;DHT22;44579;51.672;7.834;2023-07-28T06:58:42;19.30;90.80
58809;DHT22;44579;51.672;7.834;2023-07-28T07:01:23;19.40;90.90
58809;DHT22;44579;51.672;7.834;2023-07-28T07:03:50;19.40;90.90
58809;DHT22;44579;51.672;7.834;2023-07-28T07:06:17;19.40;90.90
58809;DHT22;44579;51.672;7.834;2023-07-28T07:08:44;19.50;90.90
58809;DHT22;44579;51.672;7.834;2023-07-28T07:11:11;19.50;90.80
58809;DHT22;44579;51.672;7.834;2023-07-28T07:13:38;19.50;90.80
58809;DHT22;44579;51.672;7.834;2023-07-28T07:16:05;19.50;90.80
58809;DHT22;44579;51.672;7.834;2023-07-28T07:18:33;19.60;90.80
58809;DHT22;44579;51.672;7.834;2023-07-28T07:21:03;19.50;90.90
58809;DHT22;44579;51.672;7.834;2023-07-28T07:23:30;19.50;90.90
58809;DHT22;44579;51.672;7.834;2023-07-28T07:25:56;19.50;90.90
58809;DHT22;44579;51.672;7.834;2023-07-28T07:28:23;19.60;90.90
58809;DHT22;44579;51.672;7.834;2023-07-28T07:30:50;19.50;90.90
58809;DHT22;44579;51.672;7.834;2023-07-28T07:33:17;19.50;91.00
58809;DHT22;44579;51.672;7.834;2023-07-28T07:35:44;19.50;91.10
58809;DHT22;44579;51.672;7.834;2023-07-28T07:38:10;19.50;91.10
58809;DHT22;44579;51.672;7.834;2023-07-28T07:40:37;19.50;91.10
58809;DHT22;44579;51.672;7.834;2023-07-28T07:43:04;19.50;91.10
58809;DHT22;44579;51.672;7.834;2023-07-28T07:45:31;19.60;91.10
58809;DHT22;44579;51.672;7.834;2023-07-28T07:47:58;19.70;91.10
58809;DHT22;44579;51.672;7.834;2023-07-28T07:50:25;19.80;91.10
58809;DHT22;44579;51.672;7.834;2023-07-28T07:52:52;19.90;91.10
58809;DHT22;44579;51.672;7.834;2023-07-28T07:55:19;20.00;91.10
58809;DHT22;44579;51.672;7.834;2023-07-28T07:57:46;20.10;90.90
58809;DHT22;44579;51.672;7.834;2023-07-28T08:00:13;20.20;90.90
58809;DHT22;44579;51.672;7.834;2023-07-28T08:02:40;20.20;90.80
58809;DHT22;44579;51.672;7.834;2023-07-28T08:05:10;20.20;91.00
58809;DHT22;44579;51.672;7.834;2023-07-28T08:07:37;20.30;91.10
58809;DHT22;44579;51.672;7.834;2023-07-28T08:10:04;20.20;91.10
58809;DHT22;44579;51.672;7.834;2023-07-28T08:12:31;20.20;91.30
58809;DHT22;44579;51.672;7.834;2023-07-28T08:14:58;20.20;91.50
58809;DHT22;44579;51.672;7.834;2023-07-28T08:17:25;20.20;91.60
58809;DHT22;44579;51.672;7.834;2023-07-28T08:19:55;20.20;91.70
58809;DHT22;44579;51.672;7.834;2023-07-28T08:22:22;20.30;91.70
58809;DHT22;44579;51.672;7.834;2023-07-28T08:24:49;20.30;91.70
58809;DHT22;44579;51.672;7.834;2023-07-28T08:27:16;20.40;91.60
58809;DHT22;44579;51.672;7.834;2023-07-28T08:29:42;20.40;91.70
58809;DHT22;44579;51.672;7.834;2023-07-28T08:32:09;20.50;91.80
58809;DHT22;44579;51.672;7.834;2023-07-28T08:34:36;20.50;91.90
58809;DHT22;44579;51.672;7.834;2023-07-28T08:37:03;20.70;92.10
58809;DHT22;44579;51.672;7.834;2023-07-28T08:39:30;20.70;92.10
58809;DHT22;44579;51.672;7.834;2023-07-28T08:41:57;20.70;92.00
58809;DHT22;44579;51.672;7.834;2023-07-28T08:44:24;20.70;92.00
58809;DHT22;44579;51.672;7.834;2023-07-28T08:46:51;20.70;92.10
58809;DHT22;44579;51.672;7.834;2023-07-28T08:49:18;20.80;92.20
58809;DHT22;44579;51.672;7.834;2023-07-28T08:51:57;20.80;92.20
58809;DHT22;44579;51.672;7.834;2023-07-28T08:54:25;20.90;92.30
58809;DHT22;44579;51.672;7.834;2023-07-28T08:56:51;21.10;92.20
58809;DHT22;44579;51.672;7.834;2023-07-28T08:59:22;21.20;92.10
58809;DHT22;44579;51.672;7.834;2023-07-28T09:01:50;21.30;92.10
58809;DHT22;44579;51.672;7.834;2023-07-28T09:04:17;21.50;92.10
58809;DHT22;44579;51.672;7.834;2023-07-28T09:06:47;21.60;92.10
58809;DHT22;44579;51.672;7.834;2023-07-28T09:09:14;21.70;92.10
58809;DHT22;44579;51.672;7.834;2023-07-28T09:11:44;21.80;92.30
58809;DHT22;44579;51.672;7.834;2023-07-28T09:14:12;21.80;92.40
58809;DHT22;44579;51.672;7.834;2023-07-28T09:16:39;21.80;92.60
58809;DHT22;44579;51.672;7.834;2023-07-28T09:19:07;21.70;92.70
58809;DHT22;44579;51.672;7.834;2023-07-28T09:21:34;21.70;92.70
58809;DHT22;44579;51.672;7.834;2023-07-28T09:24:05;21.60;92.80
58809;DHT22;44579;51.672;7.834;2023-07-28T09:29:18;21.50;92.80
58809;DHT22;44579;51.672;7.834;2023-07-28T09:31:49;21.60;92.80
58809;DHT22;44579;51.672;7.834;2023-07-28T09:34:25;21.60;92.80
58809;DHT22;44579;51.672;7.834;2023-07-28T09:36:53;21.80;92.80
58809;DHT22;44579;51.672;7.834;2023-07-28T09:39:20;21.90;92.80
58809;DHT22;44579;51.672;7.834;2023-07-28T09:41:47;22.10;92.90
58809;DHT22;44579;51.672;7.834;2023-07-28T09:44:14;22.10;92.90
58809;DHT22;44579;51.672;7.834;2023-07-28T09:46:52;22.20;92.90
58809;DHT22;44579;51.672;7.834;2023-07-28T09:49:27;22.20;93.00
58809;DHT22;44579;51.672;7.834;2023-07-28T09:51:54;22.30;93.00
58809;DHT22;44579;51.672;7.834;2023-07-28T09:54:24;22.20;93.10
58809;DHT22;44579;51.672;7.834;2023-07-28T09:56:57;22.20;93.10
58809;DHT22;44579;51.672;7.834;2023-07-28T09:59:37;22.20;93.20
58809;DHT22;44579;51.672;7.834;2023-07-28T10:02:05;22.20;93.10
58809;DHT22;44579;51.672;7.834;2023-07-28T10:04:32;22.10;93.20
58809;DHT22;44579;51.672;7.834;2023-07-28T10:06:59;22.10;93.20
58809;DHT22;44579;51.672;7.834;2023-07-28T10:09:27;22.10;93.30
58809;DHT22;44579;51.672;7.834;2023-07-28T10:11:54;22.10;93.30
58809;DHT22;44579;51.672;7.834;2023-07-28T10:14:25;22.10;93.20
58809;DHT22;44579;51.672;7.834;2023-07-28T10:16:53;22.20;93.20
58809;DHT22;44579;51.672;7.834;2023-07-28T10:19:20;22.30;93.20
58809;DHT22;44579;51.672;7.834;2023-07-28T10:21:47;22.40;93.10
58809;DHT22;44579;51.672;7.834;2023-07-28T10:24:14;22.60;93.00
58809;DHT22;44579;51.672;7.834;2023-07-28T10:26:41;22.60;92.90
58809;DHT22;44579;51.672;7.834;2023-07-28T10:29:09;22.80;92.90
58809;DHT22;44579;51.672;7.834;2023-07-28T10:31:53;22.90;92.80
58809;DHT22;44579;51.672;7.834;2023-07-28T10:34:27;22.90;92.10
58809;DHT22;44579;51.672;7.834;2023-07-28T10:37:03;22.90;91.90
58809;DHT22;44579;51.672;7.834;2023-07-28T10:39:38;22.90;91.80
58809;DHT22;44579;51.672;7.834;2023-07-28T10:42:07;22.90;92.00
58809;DHT22;44579;51.672;7.834;2023-07-28T10:44:38;22.80;92.10
58809;DHT22;44579;51.672;7.834;2023-07-28T10:47:08;22.90;92.00
58809;DHT22;44579;51.672;7.834;2023-07-28T10:49:42;22.90;92.00
58809;DHT22;44579;51.672;7.834;2023-07-28T10:52:11;22.90;92.00
58809;DHT22;44579;51.672;7.834;2023-07-28T10:54:46;22.80;91.90
58809;DHT22;44579;51.672;7.834;2023-07-28T10:57:14;22.90;92.00
58809;DHT22;44579;51.672;7.834;2023-07-28T10:59:46;22.90;91.90
58809;DHT22;44579;51.672;7.834;2023-07-28T11:02:15;23.00;91.90
58809;DHT22;44579;51.672;7.834;2023-07-28T11:04:46;23.00;92.00
58809;DHT22;44579;51.672;7.834;2023-07-28T11:07:14;23.00;91.90
58809;DHT22;44579;51.672;7.834;2023-07-28T11:09:40;23.00;91.80
58809;DHT22;44579;51.672;7.834;2023-07-28T11:12:08;23.00;91.90
58809;DHT22;44579;51.672;7.834;2023-07-28T11:14:35;23.00;92.00
58809;DHT22;44579;51.672;7.834;2023-07-28T11:17:02;22.90;92.00
58809;DHT22;44579;51.672;7.834;2023-07-28T11:19:29;22.90;92.10
58809;DHT22;44579;51.672;7.834;2023-07-28T11:22:01;22.90;92.10
58809;DHT22;44579;51.672;7.834;2023-07-28T11:24:36;22.90;91.90
58809;DHT22;44579;51.672;7.834;2023-07-28T11:27:03;22.90;91.90
58809;DHT22;44579;51.672;7.834;2023-07-28T11:29:35;22.90;91.70
58809;DHT22;44579;51.672;7.834;2023-07-28T11:32:11;23.00;91.70
58809;DHT22;44579;51.672;7.834;2023-07-28T11:34:42;23.10;91.60
58809;DHT22;44579;51.672;7.834;2023-07-28T11:37:12;23.20;91.60
58809;DHT22;44579;51.672;7.834;2023-07-28T11:39:40;23.30;91.60
58809;DHT22;44579;51.672;7.834;2023-07-28T11:42:10;23.40;91.60
58809;DHT22;44579;51.672;7.834;2023-07-28T11:44:44;23.50;91.70
58809;DHT22;44579;51.672;7.834;2023-07-28T11:47:17;23.70;91.70
58809;DHT22;44579;51.672;7.834;2023-07-28T11:49:49;23.90;91.70
58809;DHT22;44579;51.672;7.834;2023-07-28T11:52:18;24.00;91.80
58809;DHT22;44579;51.672;7.834;2023-07-28T11:54:49;24.10;91.90
58809;DHT22;44579;51.672;7.834;2023-07-28T11:57:24;24.10;92.30
58809;DHT22;44579;51.672;7.834;2023-07-28T12:00:14;24.10;91.90
58809;DHT22;44579;51.672;7.834;2023-07-28T12:02:46;24.10;92.10
58809;DHT22;44579;51.672;7.834;2023-07-28T12:05:13;24.10;92.00
58809;DHT22;44579;51.672;7.834;2023-07-28T12:07:48;24.00;91.90
58809;DHT22;44579;51.672;7.834;2023-07-28T12:10:15;24.10;92.10
58809;DHT22;44579;51.672;7.834;2023-07-28T12:13:07;24.20;92.00
58809;DHT22;44579;51.672;7.834;2023-07-28T12:15:40;24.20;91.90
58809;DHT22;44579;51.672;7.834;2023-07-28T12:18:13;24.20;91.90
58809;DHT22;44579;51.672;7.834;2023-07-28T12:20:44;24.10;91.90
58809;DHT22;44579;51.672;7.834;2023-07-28T12:23:14;24.00;91.80
58809;DHT22;44579;51.672;7.834;2023-07-28T12:25:44;23.90;91.80
58809;DHT22;44579;51.672;7.834;2023-07-28T12:28:11;23.80;91.90
58809;DHT22;44579;51.672;7.834;2023-07-28T12:30:41;23.90;91.90
58809;DHT22;44579;51.672;7.834;2023-07-28T12:33:08;23.80;91.80
58809;DHT22;44579;51.672;7.834;2023-07-28T12:35:47;23.70;91.80
58809;DHT22;44579;51.672;7.834;2023-07-28T12:38:17;23.70;91.80
58809;DHT22;44579;51.672;7.834;2023-07-28T12:40:46;23.70;91.90
58809;DHT22;44579;51.672;7.834;2023-07-28T12:43:16;23.70;91.60
58809;DHT22;44579;51.672;7.834;2023-07-28T12:45:46;23.80;91.40
58809;DHT22;44579;51.672;7.834;2023-07-28T12:48:16;23.90;91.20
58809;DHT22;44579;51.672;7.834;2023-07-28T12:50:47;23.90;91.00
58809;DHT22;44579;51.672;7.834;2023-07-28T12:53:13;23.90;90.80
58809;DHT22;44579;51.672;7.834;2023-07-28T12:55:47;23.90;90.70
58809;DHT22;44579;51.672;7.834;2023-07-28T12:58:17;23.90;90.00
58809;DHT22;44579;51.672;7.834;2023-07-28T13:00:47;23.90;89.60
58809;DHT22;44579;51.672;7.834;2023-07-28T13:03:17;23.90;89.80
58809;DHT22;44579;51.672;7.834;2023-07-28T13:05:44;23.90;89.70
58809;DHT22;44579;51.672;7.834;2023-07-28T13:08:10;23.90;89.80
58809;DHT22;44579;51.672;7.834;2023-07-28T13:10:40;24.00;89.60
58809;DHT22;44579;51.672;7.834;2023-07-28T13:13:10;24.10;89.50
58809;DHT22;44579;51.672;7.834;2023-07-28T13:15:40;24.10;89.50
58809;DHT22;44579;51.672;7.834;2023-07-28T13:18:07;24.10;89.50
58809;DHT22;44579;51.672;7.834;2023-07-28T13:20:34;24.10;89.40
58809;DHT22;44579;51.672;7.834;2023-07-28T13:23:01;24.20;89.50
58809;DHT22;44579;51.672;7.834;2023-07-28T13:25:28;24.30;89.50
58809;DHT22;44579;51.672;7.834;2023-07-28T13:27:55;24.40;89.70
58809;DHT22;44579;51.672;7.834;2023-07-28T13:30:22;24.50;89.60
58809;DHT22;44579;51.672;7.834;2023-07-28T13:32:49;24.50;89.60
58809;DHT22;44579;51.672;7.834;2023-07-28T13:35:16;24.60;89.40
58809;DHT22;44579;51.672;7.834;2023-07-28T13:37:43;24.60;89.20
58809;DHT22;44579;51.672;7.834;2023-07-28T13:40:10;24.70;89.50
58809;DHT22;44579;51.672;7.834;2023-07-28T13:42:39;24.70;89.40
58809;DHT22;44579;51.672;7.834;2023-07-28T13:45:06;24.70;89.80
58809;DHT22;44579;51.672;7.834;2023-07-28T13:47:34;24.70;89.70
58809;DHT22;44579;51.672;7.834;2023-07-28T13:50:01;24.70;89.50
58809;DHT22;44579;51.672;7.834;2023-07-28T13:52:28;24.70;89.70
58809;DHT22;44579;51.672;7.834;2023-07-28T13:54:55;24.70;89.70
58809;DHT22;44579;51.672;7.834;2023-07-28T13:57:25;24.70;89.70
58809;DHT22;44579;51.672;7.834;2023-07-28T13:59:52;24.80;89.50
58809;DHT22;44579;51.672;7.834;2023-07-28T14:02:19;24.90;89.50
58809;DHT22;44579;51.672;7.834;2023-07-28T14:04:46;24.90;89.20
58809;DHT22;44579;51.672;7.834;2023-07-28T14:07:12;25.10;89.40
58809;DHT22;44579;51.672;7.834;2023-07-28T14:09:39;25.20;89.50
58809;DHT22;44579;51.672;7.834;2023-07-28T14:12:08;25.20;89.50
58809;DHT22;44579;51.672;7.834;2023-07-28T14:14:35;25.30;89.70
58809;DHT22;44579;51.672;7.834;2023-07-28T14:17:02;25.30;89.80
58809;DHT22;44579;51.672;7.834;2023-07-28T14:19:29;25.20;89.40
58809;DHT22;44579;51.672;7.834;2023-07-28T14:21:56;25.20;89.50
58809;DHT22;44579;51.672;7.834;2023-07-28T14:24:23;25.20;89.60
58809;DHT22;44579;51.672;7.834;2023-07-28T14:26:50;25.10;89.50
58809;DHT22;44579;51.672;7.834;2023-07-28T14:29:16;25.00;89.40
58809;DHT22;44579;51.672;7.834;2023-07-28T14:31:43;25.00;89.40
58809;DHT22;44579;51.672;7.834;2023-07-28T14:34:10;25.00;89.20
58809;DHT22;44579;51.672;7.834;2023-07-28T14:36:38;24.90;88.70
58809;DHT22;44579;51.672;7.834;2023-07-28T14:39:05;24.90;88.70
58809;DHT22;44579;51.672;7.834;2023-07-28T14:41:32;25.00;88.70
58809;DHT22;44579;51.672;7.834;2023-07-28T14:44:00;24.90;88.60
58809;DHT22;44579;51.672;7.834;2023-07-28T14:46:27;24.90;88.50
58809;DHT22;44579;51.672;7.834;2023-07-28T14:48:54;24.90;88.40
58809;DHT22;44579;51.672;7.834;2023-07-28T14:51:21;24.90;88.40
58809;DHT22;44579;51.672;7.834;2023-07-28T14:53:48;24.80;87.90
58809;DHT22;44579;51.672;7.834;2023-07-28T14:56:15;24.90;88.00
58809;DHT22;44579;51.672;7.834;2023-07-28T14:58:43;24.90;87.80
58809;DHT22;44579;51.672;7.834;2023-07-28T15:01:10;24.90;87.40
58809;DHT22;44579;51.672;7.834;2023-07-28T15:03:37;25.10;87.30
58809;DHT22;44579;51.672;7.834;2023-07-28T15:06:04;25.10;87.20
58809;DHT22;44579;51.672;7.834;2023-07-28T15:08:32;25.20;87.10
58809;DHT22;44579;51.672;7.834;2023-07-28T15:10:59;25.20;87.00
58809;DHT22;44579;51.672;7.834;2023-07-28T15:13:27;25.30;87.00
58809;DHT22;44579;51.672;7.834;2023-07-28T15:15:54;25.40;86.90
58809;DHT22;44579;51.672;7.834;2023-07-28T15:18:21;25.40;86.70
58809;DHT22;44579;51.672;7.834;2023-07-28T15:20:48;25.50;86.80
58809;DHT22;44579;51.672;7.834;2023-07-28T15:23:15;25.50;86.90
58809;DHT22;44579;51.672;7.834;2023-07-28T15:25:42;25.60;86.90
58809;DHT22;44579;51.672;7.834;2023-07-28T15:28:09;25.60;86.80
58809;DHT22;44579;51.672;7.834;2023-07-28T15:30:37;25.70;86.70
58809;DHT22;44579;51.672;7.834;2023-07-28T15:33:04;25.70;86.70
58809;DHT22;44579;51.672;7.834;2023-07-28T15:35:30;25.60;86.40
58809;DHT22;44579;51.672;7.834;2023-07-28T15:37:59;25.60;86.60
58809;DHT22;44579;51.672;7.834;2023-07-28T15:40:25;25.50;86.50
58809;DHT22;44579;51.672;7.834;2023-07-28T15:42:52;25.50;86.60
58809;DHT22;44579;51.672;7.834;2023-07-28T15:45:19;25.50;86.60
58809;DHT22;44579;51.672;7.834;2023-07-28T15:47:46;25.50;86.60